Time;durP1;ratioP1;P1;durP2;ratioP2;P2;SDS_P1;SDS_P2;PMS_P1;PMS_P2;Temp;Humidity;BMP_temperature;BMP_pressure;BME280_temperature;BME280_humidity;BME280_pressure;Samples;Min_cycle;Max_cycle;Signal;HPM_P1;HPM_P2
2023/08/19 00:00:02;;;;;;;12.55;11.35;;;;;;;24.01;63.37;101144.88;5007587;28;20041;-66
2023/08/19 00:02:28;;;;;;;13.25;11.82;;;;;;;24.00;63.63;101140.53;5007667;28;20589;-67
2023/08/19 00:04:53;;;;;;;12.35;11.05;;;;;;;23.98;63.69;101140.69;5007367;28;20120;-64
2023/08/19 00:07:19;;;;;;;12.55;11.25;;;;;;;23.99;63.08;101138.84;5007505;28;20034;-66
2023/08/19 00:09:44;;;;;;;12.35;11.10;;;;;;;23.99;63.33;101130.88;5006794;28;20038;-64
2023/08/19 00:12:10;;;;;;;12.57;11.07;;;;;;;24.00;63.27;101137.88;5007466;28;20034;-64
2023/08/19 00:14:35;;;;;;;12.52;11.23;;;;;;;23.98;63.49;101129.22;5005515;28;20549;-65
2023/08/19 00:17:02;;;;;;;12.13;10.80;;;;;;;23.99;63.52;101136.19;5006037;28;20129;-67
2023/08/19 00:19:28;;;;;;;12.32;11.02;;;;;;;23.98;63.29;101131.88;5005670;28;20075;-66
2023/08/19 00:21:53;;;;;;;11.90;10.70;;;;;;;23.98;63.16;101131.88;5005645;28;20030;-65
2023/08/19 00:24:18;;;;;;;12.05;10.75;;;;;;;23.97;63.58;101128.38;5006371;28;20462;-65
2023/08/19 00:26:44;;;;;;;13.48;11.30;;;;;;;23.98;63.67;101131.88;5006112;28;20986;-63
2023/08/19 00:29:09;;;;;;;12.38;11.07;;;;;;;23.97;62.99;101128.38;5006200;28;20042;-62
2023/08/19 00:31:34;;;;;;;13.00;11.70;;;;;;;23.99;63.57;101129.06;5006152;28;20041;-62
2023/08/19 00:34:00;;;;;;;12.52;11.25;;;;;;;23.98;63.67;101124.72;5005884;28;20037;-63
2023/08/19 00:36:25;;;;;;;12.52;11.23;;;;;;;23.97;62.92;101125.69;5005382;28;20041;-65
2023/08/19 00:38:51;;;;;;;11.98;10.70;;;;;;;23.97;63.09;101131.03;5005828;28;20034;-65
2023/08/19 00:41:17;;;;;;;10.93;9.82;;;;;;;23.98;63.48;101134.53;5005623;28;20083;-63
2023/08/19 00:43:42;;;;;;;12.52;11.20;;;;;;;23.97;63.36;101135.53;5006404;28;20034;-64
2023/08/19 00:46:08;;;;;;;11.73;10.57;;;;;;;23.97;62.96;101132.84;5007444;28;20091;-65
2023/08/19 00:48:33;;;;;;;11.65;10.45;;;;;;;23.98;63.49;101131.88;5006373;28;20298;-63
2023/08/19 00:51:01;;;;;;;11.75;10.55;;;;;;;23.97;63.54;101130.19;5006215;28;20030;-63
2023/08/19 00:53:27;;;;;;;11.75;10.60;;;;;;;23.97;63.09;101138.19;5006890;28;20156;-63
2023/08/19 00:55:53;;;;;;;12.02;10.82;;;;;;;23.95;63.08;101129.53;5006703;28;20112;-64
2023/08/19 00:58:18;;;;;;;11.93;10.73;;;;;;;23.97;63.45;101127.53;5006919;28;20399;-64
2023/08/19 01:00:45;;;;;;;12.30;11.05;;;;;;;23.96;63.60;101125.84;5005310;28;20037;-63
2023/08/19 01:03:10;;;;;;;11.43;10.32;;;;;;;23.96;63.23;101121.38;5005524;28;20057;-64
2023/08/19 01:05:57;;;;;;;12.02;10.82;;;;;;;23.97;63.43;101122.22;5005270;28;20470;-64
2023/08/19 01:08:29;;;;;;;11.45;10.25;;;;;;;23.97;63.65;101116.88;5005327;28;20046;-65
2023/08/19 01:11:31;;;;;;;11.13;10.00;;;;;;;23.96;63.55;101116.06;5005470;28;20026;-63
2023/08/19 01:14:12;;;;;;;11.05;9.95;;;;;;;23.95;63.66;101111.72;5004881;28;20053;-64
2023/08/19 01:16:40;;;;;;;11.05;9.85;;;;;;;23.96;63.19;101108.06;5005172;28;20030;-63
2023/08/19 01:19:07;;;;;;;11.57;9.85;;;;;;;23.96;63.15;101113.41;5005358;28;20037;-64
2023/08/19 01:21:34;;;;;;;11.60;10.40;;;;;;;23.96;63.32;101109.88;5004840;28;20095;-65
2023/08/19 01:24:04;;;;;;;13.00;11.02;;;;;;;23.94;63.10;101104.75;5004887;28;20069;-64
2023/08/19 01:26:29;;;;;;;11.30;10.10;;;;;;;23.94;63.60;101103.88;5005359;28;20481;-64
2023/08/19 01:28:55;;;;;;;11.32;10.23;;;;;;;23.94;63.27;101102.09;5008666;28;20066;-66
2023/08/19 01:31:20;;;;;;;11.32;9.80;;;;;;;23.95;63.11;101103.72;5009150;28;20131;-65
2023/08/19 01:33:45;;;;;;;11.27;10.02;;;;;;;23.96;63.44;101093.91;5008760;28;20045;-66
2023/08/19 01:36:18;;;;;;;11.00;9.90;;;;;;;23.94;63.27;101086.13;5008461;28;20505;-63
2023/08/19 01:38:52;;;;;;;11.23;10.02;;;;;;;23.93;63.47;101081.78;5008537;28;20029;-65
2023/08/19 01:41:19;;;;;;;10.50;9.40;;;;;;;23.96;63.59;101077.94;5008633;28;20022;-63
2023/08/19 01:43:45;;;;;;;11.23;9.90;;;;;;;23.95;63.16;101078.97;5007539;28;20403;-65
2023/08/19 01:46:10;;;;;;;11.27;10.18;;;;;;;23.96;63.08;101077.94;5009658;28;20045;-65
2023/08/19 01:48:36;;;;;;;10.82;9.55;;;;;;;23.95;63.60;101077.13;5009611;28;20046;-64
2023/08/19 01:51:01;;;;;;;10.82;9.73;;;;;;;23.94;63.10;101079.94;5007971;28;20045;-66
2023/08/19 01:53:26;;;;;;;10.27;9.18;;;;;;;23.95;63.21;101079.78;5009427;28;20033;-64
2023/08/19 01:55:52;;;;;;;11.35;10.18;;;;;;;23.94;63.54;101069.28;5009629;28;20030;-63
2023/08/19 01:58:17;;;;;;;10.95;9.57;;;;;;;23.94;63.18;101071.94;5010248;28;20038;-64
2023/08/19 02:00:42;;;;;;;10.77;9.68;;;;;;;23.95;62.97;101085.09;5008256;28;20034;-64
2023/08/19 02:03:08;;;;;;;10.60;9.50;;;;;;;23.94;63.24;101078.13;5008644;28;20029;-64
2023/08/19 02:05:33;;;;;;;10.57;9.07;;;;;;;23.96;63.02;101081.47;5008264;28;20065;-64
2023/08/19 02:07:58;;;;;;;10.90;9.73;;;;;;;23.93;63.47;101068.47;5008336;28;20311;-67
2023/08/19 02:10:23;;;;;;;11.02;9.60;;;;;;;23.94;63.14;101069.28;5008216;28;20112;-63
2023/08/19 02:12:49;;;;;;;10.68;9.57;;;;;;;23.93;63.14;101060.47;5008052;28;20033;-65
2023/08/19 02:15:14;;;;;;;10.25;9.15;;;;;;;23.94;63.33;101070.16;5008611;28;20053;-62
2023/08/19 02:17:39;;;;;;;9.95;8.95;;;;;;;23.94;63.39;101063.97;5009020;28;20363;-63
2023/08/19 02:20:05;;;;;;;10.77;9.68;;;;;;;23.93;63.00;101063.13;5011633;28;20172;-62
2023/08/19 02:22:30;;;;;;;10.75;9.65;;;;;;;23.94;63.33;101061.31;5008991;28;20038;-63
2023/08/19 02:24:56;;;;;;;10.73;9.38;;;;;;;23.92;63.53;101050.00;5009737;28;20030;-64
2023/08/19 02:27:21;;;;;;;10.20;9.18;;;;;;;23.93;63.29;101049.84;5008950;28;20042;-63
2023/08/19 02:29:46;;;;;;;10.35;9.25;;;;;;;23.93;63.36;101051.66;5008442;28;20034;-63
2023/08/19 02:32:12;;;;;;;10.00;9.02;;;;;;;23.94;63.28;101048.00;5007570;28;20533;-63
2023/08/19 02:34:37;;;;;;;9.88;8.88;;;;;;;23.94;63.07;101053.31;5007467;28;20033;-63
2023/08/19 02:37:02;;;;;;;9.60;8.65;;;;;;;23.94;63.41;101054.19;5006846;28;20083;-63
2023/08/19 02:39:28;;;;;;;10.50;9.40;;;;;;;23.92;62.94;101048.16;5008281;28;20562;-63
2023/08/19 02:41:53;;;;;;;10.65;9.32;;;;;;;23.92;63.05;101044.66;5007527;28;20034;-63
2023/08/19 02:44:18;;;;;;;9.77;8.77;;;;;;;23.92;63.07;101050.00;5008364;28;20025;-65
2023/08/19 02:46:44;;;;;;;10.02;9.02;;;;;;;23.93;63.27;101043.69;5007215;28;20026;-63
2023/08/19 02:49:09;;;;;;;9.63;8.63;;;;;;;23.92;63.13;101042.00;5007376;28;20493;-63
2023/08/19 02:51:34;;;;;;;10.23;8.80;;;;;;;23.93;63.18;101041.03;5006020;28;20088;-62
2023/08/19 02:53:59;;;;;;;9.98;8.98;;;;;;;23.93;63.20;101043.69;5007727;28;20505;-62
2023/08/19 02:56:25;;;;;;;9.90;8.90;;;;;;;23.91;63.42;101035.84;5006933;28;20045;-63
2023/08/19 02:58:50;;;;;;;9.93;8.77;;;;;;;23.92;63.10;101036.69;5007385;28;20041;-62
2023/08/19 03:01:16;;;;;;;9.93;8.93;;;;;;;23.93;63.18;101041.84;5007305;28;20346;-66
2023/08/19 03:03:41;;;;;;;9.90;8.90;;;;;;;23.93;63.27;101047.16;5007208;28;20471;-66
2023/08/19 03:06:06;;;;;;;9.60;8.60;;;;;;;23.93;63.26;101035.69;5007147;28;20034;-63
2023/08/19 03:08:32;;;;;;;9.38;8.48;;;;;;;23.92;63.20;101045.50;5007567;28;20038;-64
2023/08/19 03:10:57;;;;;;;9.50;8.57;;;;;;;23.93;63.29;101041.84;5007143;28;20434;-64
2023/08/19 03:13:22;;;;;;;9.50;8.60;;;;;;;23.90;63.12;101040.31;5007279;28;20034;-65
2023/08/19 03:15:48;;;;;;;10.32;8.52;;;;;;;23.93;63.25;101038.38;5007799;28;20033;-64
2023/08/19 03:18:14;;;;;;;9.70;8.25;;;;;;;23.93;63.21;101035.69;5007785;28;20113;-66
2023/08/19 03:20:40;;;;;;;9.43;8.15;;;;;;;23.91;63.09;101027.88;5008687;28;20041;-65
2023/08/19 03:23:06;;;;;;;8.40;7.57;;;;;;;23.92;63.09;101031.34;5007434;28;20033;-64
2023/08/19 03:25:31;;;;;;;9.13;8.23;;;;;;;23.92;63.08;101037.50;5007612;28;20044;-63
2023/08/19 03:27:56;;;;;;;8.98;8.07;;;;;;;23.92;63.29;101031.34;5007543;28;20112;-64
2023/08/19 03:30:22;;;;;;;9.48;8.50;;;;;;;23.92;63.17;101031.34;5008090;28;20398;-64
2023/08/19 03:32:47;;;;;;;9.45;8.45;;;;;;;23.91;63.32;101035.84;5008401;28;20025;-64
2023/08/19 03:35:12;;;;;;;9.38;8.30;;;;;;;23.91;63.01;101027.88;5009229;28;20042;-64
2023/08/19 03:37:38;;;;;;;9.23;8.32;;;;;;;23.91;63.41;101030.53;5007155;28;20167;-63
2023/08/19 03:40:04;;;;;;;9.00;8.10;;;;;;;23.92;63.00;101026.84;5007901;28;20029;-64
2023/08/19 03:42:29;;;;;;;9.23;8.10;;;;;;;23.91;63.30;101033.19;5007432;28;20041;-64
2023/08/19 03:44:54;;;;;;;9.23;8.10;;;;;;;23.90;62.90;101035.00;5007454;28;20084;-66
2023/08/19 03:47:20;;;;;;;9.38;8.38;;;;;;;23.92;63.06;101040.16;5006027;28;20494;-64
2023/08/19 03:49:45;;;;;;;9.30;8.40;;;;;;;23.92;63.16;101034.03;5005721;28;20128;-64
2023/08/19 03:52:10;;;;;;;8.63;7.72;;;;;;;23.90;63.41;101036.84;5006401;28;20390;-64
2023/08/19 03:54:35;;;;;;;9.03;8.13;;;;;;;23.92;63.13;101034.03;5006341;28;20036;-64
2023/08/19 03:57:01;;;;;;;8.75;7.85;;;;;;;23.89;63.08;101033.34;5005918;28;20771;-66
2023/08/19 03:59:27;;;;;;;8.60;7.70;;;;;;;23.89;63.00;101037.81;5006382;28;20045;-66
2023/08/19 04:01:52;;;;;;;8.70;7.80;;;;;;;23.89;62.88;101032.50;5005793;28;20033;-65
2023/08/19 04:04:17;;;;;;;9.10;8.07;;;;;;;23.90;63.33;101040.31;5006153;28;20648;-68
2023/08/19 04:06:43;;;;;;;8.60;7.70;;;;;;;23.88;63.29;101037.00;5005875;28;20471;-66
2023/08/19 04:09:08;;;;;;;8.48;7.57;;;;;;;23.90;63.25;101047.47;5006324;28;20468;-64
2023/08/19 04:11:34;;;;;;;9.25;7.65;;;;;;;23.92;63.32;101042.00;5005922;28;20030;-64
2023/08/19 04:13:59;;;;;;;8.73;7.40;;;;;;;23.89;63.13;101044.00;5005888;28;20033;-66
2023/08/19 04:16:25;;;;;;;8.75;7.85;;;;;;;23.90;63.34;101048.31;5005770;28;20088;-64
2023/08/19 04:18:50;;;;;;;9.20;7.60;;;;;;;23.90;63.29;101048.31;5005901;28;20375;-63
2023/08/19 04:21:16;;;;;;;8.30;7.50;;;;;;;23.90;63.15;101045.66;5005917;28;20049;-65
2023/08/19 04:23:42;;;;;;;8.77;7.82;;;;;;;23.91;63.22;101051.81;5005669;28;20088;-64
2023/08/19 04:26:07;;;;;;;8.60;7.70;;;;;;;23.91;63.09;101046.50;5005927;28;20393;-65
2023/08/19 04:28:33;;;;;;;8.73;7.82;;;;;;;23.88;62.91;101044.97;5006474;28;20041;-64
2023/08/19 04:31:07;;;;;;;8.35;7.55;;;;;;;23.89;62.97;101043.16;5005599;28;20034;-63
2023/08/19 04:33:32;;;;;;;8.45;7.32;;;;;;;23.91;62.74;101051.81;5005641;28;20037;-67
2023/08/19 04:35:58;;;;;;;9.48;8.15;;;;;;;23.90;63.17;101052.81;5005405;28;20445;-63
2023/08/19 04:38:24;;;;;;;8.73;7.93;;;;;;;23.90;63.33;101056.28;5005768;28;20463;-66
2023/08/19 04:40:50;;;;;;;8.63;7.65;;;;;;;23.89;62.94;101054.66;5005650;28;20044;-64
2023/08/19 04:43:16;;;;;;;8.55;7.65;;;;;;;23.89;62.95;101053.78;5006098;28;20029;-66
2023/08/19 04:45:42;;;;;;;8.38;6.95;;;;;;;23.88;62.90;101047.66;5006546;28;20125;-66
2023/08/19 04:48:07;;;;;;;7.90;7.10;;;;;;;23.88;63.25;101047.66;5006495;28;20510;-65
2023/08/19 04:50:33;;;;;;;8.45;7.50;;;;;;;23.90;63.23;101055.47;5006469;28;20069;-66
2023/08/19 04:52:58;;;;;;;8.63;7.72;;;;;;;23.89;63.24;101049.31;5007023;28;20537;-64
2023/08/19 04:55:24;;;;;;;8.55;7.20;;;;;;;23.89;63.30;101044.00;5006477;28;20478;-65
2023/08/19 04:57:50;;;;;;;8.63;7.45;;;;;;;23.90;62.92;101039.50;5007984;28;20474;-64
2023/08/19 05:00:15;;;;;;;9.05;7.35;;;;;;;23.88;63.25;101050.31;5006979;28;20045;-66
2023/08/19 05:02:41;;;;;;;7.68;6.88;;;;;;;23.90;62.84;101044.81;5009543;28;20041;-63
2023/08/19 05:05:07;;;;;;;7.93;7.13;;;;;;;23.89;63.29;101045.81;5009172;28;20541;-64
2023/08/19 05:07:32;;;;;;;7.45;6.65;;;;;;;23.90;62.85;101050.16;5009262;28;20038;-65
2023/08/19 05:09:58;;;;;;;7.97;7.17;;;;;;;23.88;62.72;101055.63;5009432;28;20467;-64
2023/08/19 05:12:23;;;;;;;8.18;7.30;;;;;;;23.88;63.00;101058.28;5008238;28;20278;-64
2023/08/19 05:14:49;;;;;;;7.90;7.07;;;;;;;23.90;63.23;101052.81;5009641;28;20082;-63
2023/08/19 05:17:14;;;;;;;8.43;7.38;;;;;;;23.88;62.70;101052.97;5009497;28;21428;-64
2023/08/19 05:19:40;;;;;;;7.93;7.13;;;;;;;23.88;62.85;101060.94;5009534;28;20574;-65
2023/08/19 05:22:05;;;;;;;7.90;7.10;;;;;;;23.89;62.55;101064.44;5009273;28;20038;-65
2023/08/19 05:24:30;;;;;;;7.80;6.63;;;;;;;23.89;63.07;101067.94;5009227;28;20030;-65
2023/08/19 05:26:55;;;;;;;7.10;6.30;;;;;;;23.89;63.03;101075.94;5009075;28;20054;-65
2023/08/19 05:29:21;;;;;;;7.55;6.68;;;;;;;23.88;62.64;101068.94;5009132;28;20041;-67
2023/08/19 05:31:46;;;;;;;7.90;6.95;;;;;;;23.87;62.76;101063.78;5009207;28;20034;-65
2023/08/19 05:34:11;;;;;;;8.55;6.68;;;;;;;23.89;62.81;101059.13;5008374;28;20410;-65
2023/08/19 05:36:37;;;;;;;7.72;6.82;;;;;;;23.88;62.79;101063.63;5008974;28;20125;-65
2023/08/19 05:39:03;;;;;;;8.23;6.93;;;;;;;23.87;63.06;101058.44;5009058;28;20095;-66
2023/08/19 05:41:29;;;;;;;7.57;6.78;;;;;;;23.87;62.69;101061.09;5008759;28;20474;-66
2023/08/19 05:43:54;;;;;;;7.85;6.63;;;;;;;23.88;63.01;101066.28;5008892;28;20060;-63
2023/08/19 05:46:19;;;;;;;7.15;6.45;;;;;;;23.89;62.72;101072.41;5008741;28;20045;-64
2023/08/19 05:48:45;;;;;;;7.57;6.70;;;;;;;23.87;62.73;101069.09;5008448;28;20030;-64
2023/08/19 05:51:10;;;;;;;8.05;7.18;;;;;;;23.88;62.88;101066.28;5009090;28;20079;-64
2023/08/19 05:53:35;;;;;;;8.32;7.43;;;;;;;23.87;63.15;101067.25;5009944;28;20045;-64
2023/08/19 05:56:01;;;;;;;7.40;6.60;;;;;;;23.86;62.84;101068.28;5009368;28;20536;-63
2023/08/19 05:58:27;;;;;;;7.63;6.10;;;;;;;23.87;62.93;101074.41;5009034;28;20038;-64
2023/08/19 06:01:00;;;;;;;7.68;6.88;;;;;;;23.85;63.48;101076.41;5009335;28;20399;-62
2023/08/19 06:03:26;;;;;;;7.53;6.57;;;;;;;23.87;62.96;101091.22;5008518;28;20029;-64
2023/08/19 06:05:51;;;;;;;7.80;6.78;;;;;;;23.85;62.91;101093.19;5008229;28;20057;-63
2023/08/19 06:08:17;;;;;;;7.85;6.85;;;;;;;23.86;62.96;101092.22;5008344;28;20034;-66
2023/08/19 06:10:44;;;;;;;8.27;6.47;;;;;;;23.86;63.38;101089.56;5008247;28;20426;-63
2023/08/19 06:13:10;;;;;;;7.55;6.45;;;;;;;23.86;63.44;101091.34;5007360;28;20453;-66
2023/08/19 06:15:36;;;;;;;8.57;6.80;;;;;;;23.86;63.44;101089.56;5007763;28;20033;-64
2023/08/19 06:18:01;;;;;;;9.05;6.55;;;;;;;23.85;63.61;101095.84;5008488;28;20037;-65
2023/08/19 06:20:26;;;;;;;7.88;7.00;;;;;;;23.86;63.64;101100.19;5015227;28;20120;-63
2023/08/19 06:22:52;;;;;;;8.43;6.45;;;;;;;23.86;63.66;101099.34;5017300;28;20061;-63
2023/08/19 06:25:17;;;;;;;10.23;6.75;;;;;;;23.86;63.69;101102.88;5014748;28;20045;-64
2023/08/19 06:27:42;;;;;;;8.52;6.55;;;;;;;23.86;63.76;101105.53;5007663;28;20530;-63
2023/08/19 06:30:08;;;;;;;8.85;6.55;;;;;;;23.85;64.25;101106.50;5008248;28;20037;-64
2023/08/19 06:32:34;;;;;;;8.50;6.60;;;;;;;23.86;64.46;101110.84;5007732;28;20029;-64
2023/08/19 06:35:00;;;;;;;8.90;6.35;;;;;;;23.85;64.60;101111.00;5008597;28;20398;-65
2023/08/19 06:37:30;;;;;;;8.07;6.55;;;;;;;23.85;64.73;101109.16;5008138;28;20031;-64
2023/08/19 06:39:58;;;;;;;9.30;6.28;;;;;;;23.87;64.66;101123.16;5007777;28;20033;-65
2023/08/19 06:42:25;;;;;;;10.73;7.05;;;;;;;23.87;64.80;101124.97;5007397;28;20394;-64
2023/08/19 06:44:56;;;;;;;8.63;6.50;;;;;;;23.87;64.76;101122.31;5007492;28;20076;-64
2023/08/19 06:47:23;;;;;;;7.72;6.10;;;;;;;23.88;65.11;101130.16;5008064;28;20037;-63
2023/08/19 06:49:48;;;;;;;7.47;6.68;;;;;;;23.88;64.68;101132.81;5009293;28;20080;-65
2023/08/19 06:52:14;;;;;;;7.07;6.38;;;;;;;23.88;64.72;101130.16;5008753;28;20053;-64
2023/08/19 06:54:39;;;;;;;7.00;6.05;;;;;;;23.88;65.09;101138.13;5008259;28;20038;-66
2023/08/19 06:57:07;;;;;;;7.93;6.90;;;;;;;23.88;64.83;101138.13;5008211;28;20034;-63
2023/08/19 06:59:38;;;;;;;8.52;6.53;;;;;;;23.90;65.01;101143.31;5008334;28;20029;-65
2023/08/19 07:02:04;;;;;;;8.60;6.75;;;;;;;23.90;64.69;101140.63;5007879;28;20486;-64
2023/08/19 07:04:30;;;;;;;8.52;5.88;;;;;;;23.91;65.26;101147.66;5007428;28;20040;-67
2023/08/19 07:07:03;;;;;;;7.95;5.95;;;;;;;23.90;64.96;101148.63;5007776;28;20029;-66
2023/08/19 07:09:29;;;;;;;7.75;6.45;;;;;;;23.93;65.39;101152.81;5007385;28;20048;-64
2023/08/19 07:11:56;;;;;;;8.07;6.85;;;;;;;23.94;64.97;101147.34;5004900;28;20909;-63
2023/08/19 07:14:25;;;;;;;8.93;6.43;;;;;;;24.00;64.68;101149.34;5005650;28;20105;-63
2023/08/19 07:16:52;;;;;;;8.15;6.60;;;;;;;24.05;64.12;101146.22;5006584;28;20080;-68
2023/08/19 07:19:29;;;;;;;7.22;5.88;;;;;;;24.08;64.48;101145.91;5006509;28;20030;-64
2023/08/19 07:21:56;;;;;;;7.45;6.22;;;;;;;24.14;64.16;101142.63;5006088;28;20551;-65
2023/08/19 07:24:22;;;;;;;7.90;6.13;;;;;;;24.18;64.55;101151.97;5006321;28;20076;-65
2023/08/19 07:26:48;;;;;;;8.07;6.20;;;;;;;24.21;64.36;101149.00;5009894;28;20045;-66
2023/08/19 07:29:14;;;;;;;8.68;6.35;;;;;;;24.22;64.09;101152.47;5006164;28;20390;-67
2023/08/19 07:31:41;;;;;;;8.60;6.22;;;;;;;24.25;64.02;101141.53;5004835;28;20041;-66
2023/08/19 07:34:06;;;;;;;9.48;6.05;;;;;;;24.31;64.03;101170.19;5006205;28;20079;-65
2023/08/19 07:36:31;;;;;;;9.68;6.30;;;;;;;24.34;63.69;101158.38;5005913;28;20026;-63
2023/08/19 07:38:57;;;;;;;7.68;6.50;;;;;;;24.36;63.77;101175.03;5006169;28;20069;-68
2023/08/19 07:41:23;;;;;;;8.25;5.88;;;;;;;24.35;63.84;101184.84;5006909;28;20022;-64
2023/08/19 07:43:48;;;;;;;7.57;5.93;;;;;;;24.34;64.35;101171.69;5007031;28;20112;-67
2023/08/19 07:46:15;;;;;;;9.23;5.97;;;;;;;24.37;63.66;101180.22;5005862;28;20037;-69
2023/08/19 07:48:44;;;;;;;7.45;6.03;;;;;;;24.40;63.86;101187.03;5005376;28;20045;-65
2023/08/19 07:51:11;;;;;;;6.65;5.93;;;;;;;24.43;63.47;101197.38;5006941;28;20038;-64
2023/08/19 07:53:36;;;;;;;7.35;6.10;;;;;;;24.45;63.58;101198.06;5006830;28;20057;-64
2023/08/19 07:56:01;;;;;;;7.20;5.70;;;;;;;24.45;63.44;101204.22;5005361;28;20053;-64
2023/08/19 07:58:27;;;;;;;9.20;6.07;;;;;;;24.49;63.34;101202.06;5007794;28;20087;-62
2023/08/19 08:00:53;;;;;;;7.90;6.30;;;;;;;24.50;63.20;101193.09;5006364;28;20123;-65
2023/08/19 08:03:19;;;;;;;7.05;5.90;;;;;;;24.50;63.34;101177.13;5005646;28;20263;-63
2023/08/19 08:05:45;;;;;;;7.27;5.70;;;;;;;24.51;63.67;101185.94;5006192;28;20053;-64
2023/08/19 08:08:10;;;;;;;8.55;6.28;;;;;;;24.51;63.74;101181.44;5005615;28;20279;-63
2023/08/19 08:10:36;;;;;;;7.82;6.15;;;;;;;24.52;63.41;101196.44;5005364;28;20033;-63
2023/08/19 08:13:01;;;;;;;7.10;6.10;;;;;;;24.54;63.08;101210.41;5004733;28;20041;-65
2023/08/19 08:15:27;;;;;;;7.20;6.18;;;;;;;24.56;63.20;101191.63;5006154;28;20498;-69
2023/08/19 08:17:52;;;;;;;7.57;5.90;;;;;;;24.57;62.58;101196.81;5006064;28;20030;-66
2023/08/19 08:20:17;;;;;;;8.23;5.57;;;;;;;24.55;62.93;101201.44;5006569;28;20455;-63
2023/08/19 08:22:43;;;;;;;6.93;5.35;;;;;;;24.57;62.69;101206.66;5006179;28;20038;-61
2023/08/19 08:25:11;;;;;;;7.97;5.82;;;;;;;24.57;62.83;101219.97;5005912;28;20037;-65
2023/08/19 08:27:37;;;;;;;8.93;6.13;;;;;;;24.57;62.68;101223.47;5005573;28;20045;-62
2023/08/19 08:30:02;;;;;;;8.07;5.70;;;;;;;24.58;62.66;101226.97;5005565;28;20484;-63
2023/08/19 08:32:27;;;;;;;7.40;5.85;;;;;;;24.58;62.46;101224.31;5005866;28;20052;-61
2023/08/19 08:34:53;;;;;;;7.53;5.63;;;;;;;24.57;62.44;101210.13;5006222;28;20034;-62
2023/08/19 08:37:19;;;;;;;7.60;5.47;;;;;;;24.57;62.21;101254.59;5006014;28;20490;-61
2023/08/19 08:39:45;;;;;;;8.48;5.25;;;;;;;24.56;62.43;101256.44;5005518;28;20030;-63
2023/08/19 08:42:10;;;;;;;8.23;5.68;;;;;;;24.56;62.30;101248.44;5005818;28;20084;-63
2023/08/19 08:44:37;;;;;;;9.93;5.85;;;;;;;24.55;61.90;101244.06;5006027;28;20045;-61
2023/08/19 08:47:03;;;;;;;7.75;5.90;;;;;;;24.56;62.19;101247.56;5006404;28;20125;-61
2023/08/19 08:49:29;;;;;;;6.80;5.68;;;;;;;24.57;61.88;101251.94;5006274;28;20049;-61
2023/08/19 08:51:56;;;;;;;6.85;5.78;;;;;;;24.57;61.80;101247.44;5005974;28;20034;-62
2023/08/19 08:54:22;;;;;;;7.85;5.55;;;;;;;24.57;61.89;101258.09;5006266;28;20057;-62
2023/08/19 08:56:48;;;;;;;10.23;6.18;;;;;;;24.59;62.01;101276.59;5006853;28;20021;-61
2023/08/19 08:59:13;;;;;;;7.03;5.68;;;;;;;24.59;62.60;101277.44;5005922;28;20041;-61
2023/08/19 09:01:41;;;;;;;9.82;5.43;;;;;;;24.58;62.60;101269.59;5005860;28;20101;-60
2023/08/19 09:04:08;;;;;;;8.10;5.95;;;;;;;24.58;62.31;101283.75;5005782;28;20470;-61
2023/08/19 09:06:37;;;;;;;7.55;5.28;;;;;;;24.59;62.14;101284.59;5005788;28;20053;-64
2023/08/19 09:09:08;;;;;;;8.25;5.50;;;;;;;24.61;62.12;101282.63;5005140;28;20048;-63
2023/08/19 09:11:36;;;;;;;7.30;5.80;;;;;;;24.60;62.08;101286.28;5004701;28;20072;-61
2023/08/19 09:14:22;;;;;;;8.20;5.63;;;;;;;24.59;62.13;101300.56;5004611;28;20730;-61
2023/08/19 09:16:49;;;;;;;6.85;5.15;;;;;;;24.62;62.06;101297.59;5002606;28;20105;-62
2023/08/19 09:19:14;;;;;;;6.95;5.18;;;;;;;24.63;61.78;101297.44;5006036;28;20120;-62
2023/08/19 09:21:41;;;;;;;6.45;5.60;;;;;;;24.64;62.13;101292.94;5004846;28;20140;-63
2023/08/19 09:24:06;;;;;;;7.50;5.38;;;;;;;24.64;62.33;101303.59;5005909;28;20041;-61
2023/08/19 09:26:32;;;;;;;7.00;5.57;;;;;;;24.64;62.22;101314.25;5005605;28;20057;-64
2023/08/19 09:28:58;;;;;;;11.02;7.03;;;;;;;24.66;62.03;101317.63;5004909;28;20140;-62
2023/08/19 09:31:24;;;;;;;8.32;5.40;;;;;;;24.66;61.82;101319.44;5005821;28;20475;-64
2023/08/19 09:33:52;;;;;;;10.00;5.85;;;;;;;24.65;62.32;101317.78;5004857;28;20057;-63
2023/08/19 09:36:17;;;;;;;7.35;5.20;;;;;;;24.67;62.24;101321.13;5004637;28;20030;-62
2023/08/19 09:38:43;;;;;;;7.55;5.50;;;;;;;24.67;62.27;101329.94;5005320;28;20034;-62
2023/08/19 09:41:08;;;;;;;7.72;5.57;;;;;;;24.68;62.53;101323.63;5004588;28;20069;-61
2023/08/19 09:43:38;;;;;;;7.03;5.45;;;;;;;24.69;62.72;101325.31;5004357;28;20038;-61
2023/08/19 09:46:04;;;;;;;6.90;5.35;;;;;;;24.72;62.50;101333.00;5005266;28;20087;-61
2023/08/19 09:48:29;;;;;;;7.00;5.63;;;;;;;24.74;62.21;101332.84;5006881;28;20038;-60
2023/08/19 09:50:54;;;;;;;6.22;5.10;;;;;;;24.75;62.48;101342.47;5008074;28;20034;-65
2023/08/19 09:53:20;;;;;;;8.35;5.43;;;;;;;24.73;62.23;101344.47;5007609;28;20034;-61
2023/08/19 09:55:50;;;;;;;8.18;5.78;;;;;;;24.74;62.80;101362.16;5007177;28;20033;-61
2023/08/19 09:58:16;;;;;;;7.25;5.47;;;;;;;24.75;62.44;101363.81;5007051;28;20172;-62
2023/08/19 10:00:42;;;;;;;9.52;5.35;;;;;;;24.76;62.50;101366.31;5007906;28;20022;-63
2023/08/19 10:03:08;;;;;;;7.70;5.68;;;;;;;24.76;62.95;101360.16;5007951;28;20125;-62
2023/08/19 10:05:41;;;;;;;7.07;5.50;;;;;;;24.75;62.90;101371.78;5007832;28;20041;-64
2023/08/19 10:08:13;;;;;;;7.90;5.15;;;;;;;24.75;62.82;101369.13;5007587;28;20458;-63
2023/08/19 10:10:40;;;;;;;7.90;5.47;;;;;;;24.74;62.86;101370.97;5007346;28;20053;-67
2023/08/19 10:13:07;;;;;;;7.70;5.40;;;;;;;24.73;62.62;101379.13;5007140;28;20042;-62
2023/08/19 10:15:34;;;;;;;7.88;5.65;;;;;;;24.76;63.30;101376.16;5007742;28;20030;-63
2023/08/19 10:18:05;;;;;;;8.70;6.00;;;;;;;24.75;63.02;101377.13;5008144;28;20077;-62
2023/08/19 10:20:32;;;;;;;6.55;5.38;;;;;;;24.79;63.04;101378.50;5007806;28;20038;-61
2023/08/19 10:23:01;;;;;;;7.45;5.90;;;;;;;24.79;63.16;101381.16;4994298;28;20932;-62
2023/08/19 10:25:27;;;;;;;6.88;5.30;;;;;;;24.79;63.16;101381.16;5004401;28;20044;-64
2023/08/19 10:28:05;;;;;;;7.30;5.50;;;;;;;24.79;63.05;101386.50;5007171;28;20046;-63
2023/08/19 10:30:31;;;;;;;8.52;6.10;;;;;;;24.83;63.33;101395.00;5007154;28;20509;-62
2023/08/19 10:33:24;;;;;;;6.35;5.35;;;;;;;24.80;63.18;101390.81;5007964;28;20033;-60
2023/08/19 10:36:09;;;;;;;9.82;5.40;;;;;;;24.71;63.79;101389.94;5010138;28;20060;-61
2023/08/19 10:38:45;;;;;;;7.05;5.13;;;;;;;24.67;63.83;101393.06;5007216;28;20164;-64
2023/08/19 10:41:26;;;;;;;7.13;5.30;;;;;;;24.63;64.44;101409.34;5008549;28;20036;-62
2023/08/19 10:43:55;;;;;;;7.38;5.78;;;;;;;24.61;64.46;101422.00;5005466;28;20156;-65
2023/08/19 10:46:42;;;;;;;7.00;5.85;;;;;;;24.58;64.76;101424.16;5007490;28;20030;-62
2023/08/19 10:49:14;;;;;;;8.35;6.05;;;;;;;24.55;65.39;101425.25;5008075;28;20792;-62
2023/08/19 10:51:46;;;;;;;7.78;6.03;;;;;;;24.53;65.77;101432.56;5008508;28;20030;-61
2023/08/19 10:54:12;;;;;;;8.75;6.47;;;;;;;24.51;65.83;101439.84;5008620;28;20029;-64
2023/08/19 10:56:43;;;;;;;6.82;5.80;;;;;;;24.51;65.53;101447.84;5008188;28;20121;-63
2023/08/19 10:59:10;;;;;;;11.25;6.20;;;;;;;24.53;65.19;101447.69;5007898;28;20109;-64
2023/08/19 11:01:35;;;;;;;7.35;6.40;;;;;;;24.51;65.97;101447.03;5008265;28;20030;-61
2023/08/19 11:04:00;;;;;;;7.85;6.40;;;;;;;24.51;65.52;101455.84;5006129;28;20033;-65
2023/08/19 11:06:32;;;;;;;8.07;5.78;;;;;;;24.59;64.47;101457.78;5006694;28;20034;-62
2023/08/19 11:09:01;;;;;;;8.48;6.15;;;;;;;24.66;64.51;101453.53;5005714;28;20530;-64
2023/08/19 11:11:26;;;;;;;7.32;6.53;;;;;;;24.71;64.15;101455.75;5007069;28;20117;-61
2023/08/19 11:13:53;;;;;;;7.90;6.20;;;;;;;24.73;64.50;101464.41;5006911;28;20113;-61
2023/08/19 11:16:18;;;;;;;7.00;5.85;;;;;;;24.74;64.32;101487.41;5007322;28;20057;-62
2023/08/19 11:18:43;;;;;;;8.25;6.38;;;;;;;24.77;64.10;101505.75;5007526;28;20073;-64